sensor_id;sensor_type;location;lat;lon;timestamp;P1;durP1;ratioP1;P2;durP2;ratioP2
37091;SDS011;23005;51.998;4.502;2023-04-29T00:01:17;67.35;;;31.73;;
37091;SDS011;23005;51.998;4.502;2023-04-29T00:02:38;60.22;;;30.17;;
37091;SDS011;23005;51.998;4.502;2023-04-29T00:03:59;52.65;;;29.42;;
37091;SDS011;23005;51.998;4.502;2023-04-29T00:05:20;59.10;;;28.27;;
37091;SDS011;23005;51.998;4.502;2023-04-29T00:06:42;65.90;;;29.02;;
37091;SDS011;23005;51.998;4.502;2023-04-29T00:08:03;52.95;;;27.58;;
37091;SDS011;23005;51.998;4.502;2023-04-29T00:09:23;51.63;;;27.88;;
37091;SDS011;23005;51.998;4.502;2023-04-29T00:10:44;55.45;;;26.73;;
37091;SDS011;23005;51.998;4.502;2023-04-29T00:12:05;55.67;;;26.92;;
37091;SDS011;23005;51.998;4.502;2023-04-29T00:13:29;64.20;;;30.58;;
37091;SDS011;23005;51.998;4.502;2023-04-29T00:14:49;49.05;;;26.13;;
37091;SDS011;23005;51.998;4.502;2023-04-29T00:16:10;56.80;;;29.27;;
37091;SDS011;23005;51.998;4.502;2023-04-29T00:17:31;47.33;;;25.73;;
37091;SDS011;23005;51.998;4.502;2023-04-29T00:18:51;66.40;;;29.63;;
37091;SDS011;23005;51.998;4.502;2023-04-29T00:20:12;51.95;;;27.58;;
37091;SDS011;23005;51.998;4.502;2023-04-29T00:21:33;54.80;;;29.08;;
37091;SDS011;23005;51.998;4.502;2023-04-29T00:22:55;56.97;;;28.20;;
37091;SDS011;23005;51.998;4.502;2023-04-29T00:24:16;49.13;;;27.55;;
37091;SDS011;23005;51.998;4.502;2023-04-29T00:25:37;56.85;;;29.33;;
37091;SDS011;23005;51.998;4.502;2023-04-29T00:26:58;58.33;;;29.08;;
37091;SDS011;23005;51.998;4.502;2023-04-29T00:28:18;55.20;;;30.03;;
37091;SDS011;23005;51.998;4.502;2023-04-29T00:29:39;61.85;;;30.98;;
37091;SDS011;23005;51.998;4.502;2023-04-29T00:31:00;67.40;;;30.73;;
37091;SDS011;23005;51.998;4.502;2023-04-29T00:32:20;48.80;;;28.00;;
37091;SDS011;23005;51.998;4.502;2023-04-29T00:33:41;48.83;;;27.90;;
37091;SDS011;23005;51.998;4.502;2023-04-29T00:35:02;55.05;;;28.98;;
37091;SDS011;23005;51.998;4.502;2023-04-29T00:36:23;52.55;;;27.73;;
37091;SDS011;23005;51.998;4.502;2023-04-29T00:37:44;50.22;;;27.85;;
37091;SDS011;23005;51.998;4.502;2023-04-29T00:39:05;50.80;;;29.08;;
37091;SDS011;23005;51.998;4.502;2023-04-29T00:40:26;60.42;;;31.45;;
37091;SDS011;23005;51.998;4.502;2023-04-29T00:41:47;55.95;;;31.27;;
37091;SDS011;23005;51.998;4.502;2023-04-29T00:43:08;47.85;;;29.00;;
37091;SDS011;23005;51.998;4.502;2023-04-29T00:44:29;54.28;;;28.85;;
37091;SDS011;23005;51.998;4.502;2023-04-29T00:45:49;53.13;;;30.48;;
37091;SDS011;23005;51.998;4.502;2023-04-29T00:47:10;50.55;;;29.83;;
37091;SDS011;23005;51.998;4.502;2023-04-29T00:48:31;50.88;;;30.25;;
37091;SDS011;23005;51.998;4.502;2023-04-29T00:49:52;47.90;;;27.92;;
37091;SDS011;23005;51.998;4.502;2023-04-29T00:51:13;57.50;;;31.48;;
37091;SDS011;23005;51.998;4.502;2023-04-29T00:52:33;58.55;;;32.08;;
37091;SDS011;23005;51.998;4.502;2023-04-29T00:53:54;47.72;;;29.65;;
37091;SDS011;23005;51.998;4.502;2023-04-29T00:55:16;51.03;;;30.00;;
37091;SDS011;23005;51.998;4.502;2023-04-29T00:56:38;62.88;;;33.17;;
37091;SDS011;23005;51.998;4.502;2023-04-29T00:57:59;73.20;;;34.45;;
37091;SDS011;23005;51.998;4.502;2023-04-29T00:59:20;62.03;;;34.40;;
37091;SDS011;23005;51.998;4.502;2023-04-29T01:00:41;59.80;;;33.65;;
37091;SDS011;23005;51.998;4.502;2023-04-29T01:02:02;65.93;;;32.73;;
37091;SDS011;23005;51.998;4.502;2023-04-29T01:04:44;68.15;;;33.80;;
37091;SDS011;23005;51.998;4.502;2023-04-29T01:06:06;60.88;;;33.85;;
37091;SDS011;23005;51.998;4.502;2023-04-29T01:07:33;57.00;;;33.67;;
37091;SDS011;23005;51.998;4.502;2023-04-29T01:09:05;60.60;;;31.77;;
37091;SDS011;23005;51.998;4.502;2023-04-29T01:10:38;61.85;;;31.75;;
37091;SDS011;23005;51.998;4.502;2023-04-29T01:12:05;47.95;;;29.67;;
37091;SDS011;23005;51.998;4.502;2023-04-29T01:13:32;50.53;;;28.38;;
37091;SDS011;23005;51.998;4.502;2023-04-29T01:15:02;53.60;;;30.15;;
37091;SDS011;23005;51.998;4.502;2023-04-29T01:16:27;46.63;;;29.50;;
37091;SDS011;23005;51.998;4.502;2023-04-29T01:17:50;54.63;;;31.90;;
37091;SDS011;23005;51.998;4.502;2023-04-29T01:19:15;55.72;;;31.73;;
37091;SDS011;23005;51.998;4.502;2023-04-29T01:20:44;52.28;;;32.92;;
37091;SDS011;23005;51.998;4.502;2023-04-29T01:22:05;56.70;;;33.88;;
37091;SDS011;23005;51.998;4.502;2023-04-29T01:23:27;52.92;;;29.77;;
37091;SDS011;23005;51.998;4.502;2023-04-29T01:24:48;51.08;;;32.13;;
37091;SDS011;23005;51.998;4.502;2023-04-29T01:26:09;52.22;;;31.55;;
37091;SDS011;23005;51.998;4.502;2023-04-29T01:27:30;55.53;;;31.77;;
37091;SDS011;23005;51.998;4.502;2023-04-29T01:28:53;56.47;;;35.03;;
37091;SDS011;23005;51.998;4.502;2023-04-29T01:30:21;59.30;;;34.70;;
37091;SDS011;23005;51.998;4.502;2023-04-29T01:31:48;56.67;;;33.80;;
37091;SDS011;23005;51.998;4.502;2023-04-29T01:33:16;60.72;;;35.15;;
37091;SDS011;23005;51.998;4.502;2023-04-29T01:34:41;53.28;;;31.75;;
37091;SDS011;23005;51.998;4.502;2023-04-29T01:36:07;58.60;;;33.10;;
37091;SDS011;23005;51.998;4.502;2023-04-29T01:37:34;64.07;;;35.10;;
37091;SDS011;23005;51.998;4.502;2023-04-29T01:39:13;48.72;;;31.23;;
37091;SDS011;23005;51.998;4.502;2023-04-29T01:40:36;70.97;;;34.33;;
37091;SDS011;23005;51.998;4.502;2023-04-29T01:42:03;57.15;;;31.92;;
37091;SDS011;23005;51.998;4.502;2023-04-29T01:43:26;53.92;;;32.53;;
37091;SDS011;23005;51.998;4.502;2023-04-29T01:44:50;71.43;;;36.38;;
37091;SDS011;23005;51.998;4.502;2023-04-29T01:46:12;56.70;;;33.20;;
37091;SDS011;23005;51.998;4.502;2023-04-29T01:47:36;52.80;;;32.28;;
37091;SDS011;23005;51.998;4.502;2023-04-29T01:48:57;55.08;;;32.53;;
37091;SDS011;23005;51.998;4.502;2023-04-29T01:50:18;50.13;;;30.03;;
37091;SDS011;23005;51.998;4.502;2023-04-29T01:51:39;48.92;;;30.13;;
37091;SDS011;23005;51.998;4.502;2023-04-29T01:53:00;50.13;;;31.83;;
37091;SDS011;23005;51.998;4.502;2023-04-29T01:54:22;50.00;;;30.13;;
37091;SDS011;23005;51.998;4.502;2023-04-29T01:55:42;51.42;;;31.35;;
37091;SDS011;23005;51.998;4.502;2023-04-29T01:57:03;56.60;;;33.92;;
37091;SDS011;23005;51.998;4.502;2023-04-29T01:58:24;56.28;;;31.58;;
37091;SDS011;23005;51.998;4.502;2023-04-29T01:59:45;55.60;;;31.73;;
37091;SDS011;23005;51.998;4.502;2023-04-29T02:01:08;50.63;;;30.33;;
37091;SDS011;23005;51.998;4.502;2023-04-29T02:02:29;51.08;;;30.38;;
37091;SDS011;23005;51.998;4.502;2023-04-29T02:03:50;57.53;;;31.08;;
37091;SDS011;23005;51.998;4.502;2023-04-29T02:05:11;57.15;;;31.70;;
37091;SDS011;23005;51.998;4.502;2023-04-29T02:06:32;52.25;;;30.17;;
37091;SDS011;23005;51.998;4.502;2023-04-29T02:07:52;56.22;;;32.50;;
37091;SDS011;23005;51.998;4.502;2023-04-29T02:09:13;54.60;;;31.30;;
37091;SDS011;23005;51.998;4.502;2023-04-29T02:10:35;54.72;;;31.17;;
37091;SDS011;23005;51.998;4.502;2023-04-29T02:11:56;46.92;;;31.23;;
37091;SDS011;23005;51.998;4.502;2023-04-29T02:13:16;50.17;;;30.33;;
37091;SDS011;23005;51.998;4.502;2023-04-29T02:14:37;51.25;;;29.52;;
37091;SDS011;23005;51.998;4.502;2023-04-29T02:16:05;51.80;;;32.53;;
37091;SDS011;23005;51.998;4.502;2023-04-29T02:17:26;63.67;;;32.35;;
37091;SDS011;23005;51.998;4.502;2023-04-29T02:18:49;46.05;;;28.75;;
37091;SDS011;23005;51.998;4.502;2023-04-29T02:20:12;59.40;;;30.70;;
37091;SDS011;23005;51.998;4.502;2023-04-29T02:21:33;50.88;;;28.48;;
37091;SDS011;23005;51.998;4.502;2023-04-29T02:22:54;56.40;;;30.33;;
37091;SDS011;23005;51.998;4.502;2023-04-29T02:24:15;48.90;;;27.70;;
37091;SDS011;23005;51.998;4.502;2023-04-29T02:25:37;49.10;;;29.65;;
37091;SDS011;23005;51.998;4.502;2023-04-29T02:26:58;52.80;;;29.25;;
37091;SDS011;23005;51.998;4.502;2023-04-29T02:28:19;49.83;;;27.70;;
37091;SDS011;23005;51.998;4.502;2023-04-29T02:29:39;52.08;;;27.77;;
37091;SDS011;23005;51.998;4.502;2023-04-29T02:31:00;39.15;;;25.38;;
37091;SDS011;23005;51.998;4.502;2023-04-29T02:32:21;56.35;;;28.00;;
37091;SDS011;23005;51.998;4.502;2023-04-29T02:33:42;46.42;;;27.27;;
37091;SDS011;23005;51.998;4.502;2023-04-29T02:35:03;58.03;;;28.42;;
37091;SDS011;23005;51.998;4.502;2023-04-29T02:37:44;40.75;;;25.17;;
37091;SDS011;23005;51.998;4.502;2023-04-29T02:39:05;39.78;;;25.38;;
37091;SDS011;23005;51.998;4.502;2023-04-29T02:40:26;47.50;;;26.27;;
37091;SDS011;23005;51.998;4.502;2023-04-29T02:41:48;45.30;;;25.98;;
37091;SDS011;23005;51.998;4.502;2023-04-29T02:43:08;40.53;;;24.58;;
37091;SDS011;23005;51.998;4.502;2023-04-29T02:44:30;46.83;;;26.73;;
37091;SDS011;23005;51.998;4.502;2023-04-29T02:45:51;39.50;;;23.95;;
37091;SDS011;23005;51.998;4.502;2023-04-29T02:47:12;46.67;;;26.20;;
37091;SDS011;23005;51.998;4.502;2023-04-29T02:48:32;45.73;;;27.67;;
37091;SDS011;23005;51.998;4.502;2023-04-29T02:49:53;36.13;;;23.83;;
37091;SDS011;23005;51.998;4.502;2023-04-29T02:51:14;40.38;;;25.65;;
37091;SDS011;23005;51.998;4.502;2023-04-29T02:52:35;42.75;;;25.55;;
37091;SDS011;23005;51.998;4.502;2023-04-29T02:53:55;42.35;;;24.17;;
37091;SDS011;23005;51.998;4.502;2023-04-29T02:55:16;42.17;;;24.58;;
37091;SDS011;23005;51.998;4.502;2023-04-29T02:56:37;37.88;;;22.63;;
37091;SDS011;23005;51.998;4.502;2023-04-29T02:57:59;48.15;;;24.80;;
37091;SDS011;23005;51.998;4.502;2023-04-29T02:59:19;36.60;;;21.73;;
37091;SDS011;23005;51.998;4.502;2023-04-29T03:00:40;41.13;;;23.23;;
37091;SDS011;23005;51.998;4.502;2023-04-29T03:02:01;40.60;;;24.05;;
37091;SDS011;23005;51.998;4.502;2023-04-29T03:03:22;38.40;;;22.70;;
37091;SDS011;23005;51.998;4.502;2023-04-29T03:04:43;36.17;;;22.33;;
37091;SDS011;23005;51.998;4.502;2023-04-29T03:06:05;36.85;;;21.15;;
37091;SDS011;23005;51.998;4.502;2023-04-29T03:07:26;41.10;;;22.52;;
37091;SDS011;23005;51.998;4.502;2023-04-29T03:08:47;38.80;;;22.40;;
37091;SDS011;23005;51.998;4.502;2023-04-29T03:10:08;33.85;;;21.02;;
37091;SDS011;23005;51.998;4.502;2023-04-29T03:11:28;37.92;;;22.15;;
37091;SDS011;23005;51.998;4.502;2023-04-29T03:12:49;37.92;;;23.30;;
37091;SDS011;23005;51.998;4.502;2023-04-29T03:14:12;38.28;;;22.52;;
37091;SDS011;23005;51.998;4.502;2023-04-29T03:15:33;31.67;;;21.20;;
37091;SDS011;23005;51.998;4.502;2023-04-29T03:16:54;29.40;;;21.00;;
37091;SDS011;23005;51.998;4.502;2023-04-29T03:18:14;40.33;;;23.15;;
37091;SDS011;23005;51.998;4.502;2023-04-29T03:19:35;33.58;;;21.85;;
37091;SDS011;23005;51.998;4.502;2023-04-29T03:20:56;35.65;;;22.33;;
37091;SDS011;23005;51.998;4.502;2023-04-29T03:22:17;42.00;;;22.38;;
37091;SDS011;23005;51.998;4.502;2023-04-29T03:23:38;39.00;;;21.77;;
37091;SDS011;23005;51.998;4.502;2023-04-29T03:24:58;35.05;;;21.63;;
37091;SDS011;23005;51.998;4.502;2023-04-29T03:26:19;32.67;;;20.92;;
37091;SDS011;23005;51.998;4.502;2023-04-29T03:27:40;37.55;;;23.08;;
37091;SDS011;23005;51.998;4.502;2023-04-29T03:29:01;37.75;;;21.20;;
37091;SDS011;23005;51.998;4.502;2023-04-29T03:30:23;37.40;;;22.90;;
37091;SDS011;23005;51.998;4.502;2023-04-29T03:31:43;36.53;;;21.95;;
37091;SDS011;23005;51.998;4.502;2023-04-29T03:33:04;37.77;;;20.67;;
37091;SDS011;23005;51.998;4.502;2023-04-29T03:34:25;37.67;;;22.45;;
37091;SDS011;23005;51.998;4.502;2023-04-29T03:35:46;40.33;;;22.73;;
37091;SDS011;23005;51.998;4.502;2023-04-29T03:37:06;34.63;;;22.27;;
37091;SDS011;23005;51.998;4.502;2023-04-29T03:38:27;37.00;;;22.75;;
37091;SDS011;23005;51.998;4.502;2023-04-29T03:39:48;40.90;;;21.92;;
37091;SDS011;23005;51.998;4.502;2023-04-29T03:41:08;40.73;;;22.37;;
37091;SDS011;23005;51.998;4.502;2023-04-29T03:42:29;37.40;;;22.10;;
37091;SDS011;23005;51.998;4.502;2023-04-29T03:43:50;35.38;;;20.00;;
37091;SDS011;23005;51.998;4.502;2023-04-29T03:45:11;41.60;;;23.42;;
37091;SDS011;23005;51.998;4.502;2023-04-29T03:46:33;39.03;;;23.05;;
37091;SDS011;23005;51.998;4.502;2023-04-29T03:47:54;35.65;;;21.88;;
37091;SDS011;23005;51.998;4.502;2023-04-29T03:49:14;40.08;;;23.05;;
37091;SDS011;23005;51.998;4.502;2023-04-29T03:50:35;40.03;;;24.45;;
37091;SDS011;23005;51.998;4.502;2023-04-29T03:51:56;45.92;;;23.95;;
37091;SDS011;23005;51.998;4.502;2023-04-29T03:53:17;40.73;;;23.20;;
37091;SDS011;23005;51.998;4.502;2023-04-29T03:54:38;39.17;;;20.83;;
37091;SDS011;23005;51.998;4.502;2023-04-29T03:55:58;34.47;;;20.50;;
37091;SDS011;23005;51.998;4.502;2023-04-29T03:57:19;37.35;;;22.25;;
37091;SDS011;23005;51.998;4.502;2023-04-29T03:58:40;42.58;;;23.10;;
37091;SDS011;23005;51.998;4.502;2023-04-29T04:00:01;38.13;;;22.50;;
37091;SDS011;23005;51.998;4.502;2023-04-29T04:01:21;40.03;;;22.30;;
37091;SDS011;23005;51.998;4.502;2023-04-29T04:02:43;40.63;;;21.90;;
37091;SDS011;23005;51.998;4.502;2023-04-29T04:04:04;41.30;;;23.80;;
37091;SDS011;23005;51.998;4.502;2023-04-29T04:05:26;38.50;;;22.80;;
37091;SDS011;23005;51.998;4.502;2023-04-29T04:06:47;36.60;;;22.63;;
37091;SDS011;23005;51.998;4.502;2023-04-29T04:08:08;36.33;;;20.90;;
37091;SDS011;23005;51.998;4.502;2023-04-29T04:09:28;34.45;;;20.48;;
37091;SDS011;23005;51.998;4.502;2023-04-29T04:10:52;36.08;;;21.65;;
37091;SDS011;23005;51.998;4.502;2023-04-29T04:12:13;40.63;;;22.70;;
37091;SDS011;23005;51.998;4.502;2023-04-29T04:13:34;36.40;;;20.92;;
37091;SDS011;23005;51.998;4.502;2023-04-29T04:14:55;35.58;;;20.42;;
37091;SDS011;23005;51.998;4.502;2023-04-29T04:16:16;39.58;;;21.73;;
37091;SDS011;23005;51.998;4.502;2023-04-29T04:17:37;34.90;;;20.77;;
37091;SDS011;23005;51.998;4.502;2023-04-29T04:18:59;35.63;;;21.38;;
37091;SDS011;23005;51.998;4.502;2023-04-29T04:20:20;39.53;;;21.45;;
37091;SDS011;23005;51.998;4.502;2023-04-29T04:21:41;41.90;;;24.00;;
37091;SDS011;23005;51.998;4.502;2023-04-29T04:23:04;44.28;;;23.73;;
37091;SDS011;23005;51.998;4.502;2023-04-29T04:24:25;41.00;;;23.80;;
37091;SDS011;23005;51.998;4.502;2023-04-29T04:25:46;43.20;;;22.55;;
37091;SDS011;23005;51.998;4.502;2023-04-29T04:27:07;43.90;;;24.20;;
37091;SDS011;23005;51.998;4.502;2023-04-29T04:28:27;41.35;;;22.17;;
37091;SDS011;23005;51.998;4.502;2023-04-29T04:29:51;43.10;;;22.77;;
37091;SDS011;23005;51.998;4.502;2023-04-29T04:31:13;41.33;;;23.98;;
37091;SDS011;23005;51.998;4.502;2023-04-29T04:32:34;44.42;;;22.88;;
37091;SDS011;23005;51.998;4.502;2023-04-29T04:33:55;42.45;;;22.15;;
37091;SDS011;23005;51.998;4.502;2023-04-29T04:35:17;38.83;;;23.23;;
37091;SDS011;23005;51.998;4.502;2023-04-29T04:36:38;52.63;;;24.30;;
37091;SDS011;23005;51.998;4.502;2023-04-29T04:37:58;40.40;;;23.13;;
37091;SDS011;23005;51.998;4.502;2023-04-29T04:39:19;45.40;;;24.80;;
37091;SDS011;23005;51.998;4.502;2023-04-29T04:40:40;47.95;;;23.55;;
37091;SDS011;23005;51.998;4.502;2023-04-29T04:42:00;44.90;;;22.58;;
37091;SDS011;23005;51.998;4.502;2023-04-29T04:43:21;49.40;;;23.17;;
37091;SDS011;23005;51.998;4.502;2023-04-29T04:44:42;44.83;;;22.07;;
37091;SDS011;23005;51.998;4.502;2023-04-29T04:46:08;46.70;;;23.63;;
37091;SDS011;23005;51.998;4.502;2023-04-29T04:47:29;45.05;;;25.08;;
37091;SDS011;23005;51.998;4.502;2023-04-29T04:48:50;48.50;;;24.73;;
37091;SDS011;23005;51.998;4.502;2023-04-29T04:50:12;50.15;;;24.45;;
37091;SDS011;23005;51.998;4.502;2023-04-29T04:51:34;50.78;;;25.83;;
37091;SDS011;23005;51.998;4.502;2023-04-29T04:52:55;50.13;;;23.85;;
37091;SDS011;23005;51.998;4.502;2023-04-29T04:54:16;48.97;;;24.35;;
37091;SDS011;23005;51.998;4.502;2023-04-29T04:55:37;50.10;;;24.33;;
37091;SDS011;23005;51.998;4.502;2023-04-29T04:56:57;47.70;;;24.45;;
37091;SDS011;23005;51.998;4.502;2023-04-29T04:58:18;46.97;;;24.48;;
37091;SDS011;23005;51.998;4.502;2023-04-29T04:59:39;49.83;;;25.95;;
37091;SDS011;23005;51.998;4.502;2023-04-29T05:01:00;51.53;;;25.50;;
37091;SDS011;23005;51.998;4.502;2023-04-29T05:02:21;50.83;;;23.98;;
37091;SDS011;23005;51.998;4.502;2023-04-29T05:03:42;50.38;;;25.17;;
37091;SDS011;23005;51.998;4.502;2023-04-29T05:05:03;53.67;;;28.52;;
37091;SDS011;23005;51.998;4.502;2023-04-29T05:06:24;52.05;;;25.15;;
37091;SDS011;23005;51.998;4.502;2023-04-29T05:07:47;53.83;;;26.85;;
37091;SDS011;23005;51.998;4.502;2023-04-29T05:09:07;44.85;;;24.33;;
37091;SDS011;23005;51.998;4.502;2023-04-29T05:10:28;50.42;;;26.25;;
37091;SDS011;23005;51.998;4.502;2023-04-29T05:11:51;57.65;;;25.63;;
37091;SDS011;23005;51.998;4.502;2023-04-29T05:13:12;48.50;;;26.75;;
37091;SDS011;23005;51.998;4.502;2023-04-29T05:14:33;57.90;;;27.90;;
37091;SDS011;23005;51.998;4.502;2023-04-29T05:15:54;50.50;;;25.85;;
37091;SDS011;23005;51.998;4.502;2023-04-29T05:17:15;48.70;;;25.08;;
37091;SDS011;23005;51.998;4.502;2023-04-29T05:18:36;45.53;;;25.60;;
37091;SDS011;23005;51.998;4.502;2023-04-29T05:19:57;48.13;;;24.83;;
37091;SDS011;23005;51.998;4.502;2023-04-29T05:21:20;51.22;;;26.25;;
37091;SDS011;23005;51.998;4.502;2023-04-29T05:22:41;47.80;;;25.05;;
37091;SDS011;23005;51.998;4.502;2023-04-29T05:24:03;58.20;;;28.20;;
37091;SDS011;23005;51.998;4.502;2023-04-29T05:25:25;66.63;;;30.98;;
37091;SDS011;23005;51.998;4.502;2023-04-29T05:26:45;52.63;;;27.23;;
37091;SDS011;23005;51.998;4.502;2023-04-29T05:28:06;53.80;;;28.80;;
37091;SDS011;23005;51.998;4.502;2023-04-29T05:29:27;56.45;;;30.05;;
37091;SDS011;23005;51.998;4.502;2023-04-29T05:30:49;56.50;;;30.02;;
37091;SDS011;23005;51.998;4.502;2023-04-29T05:32:10;53.88;;;29.15;;
37091;SDS011;23005;51.998;4.502;2023-04-29T05:33:31;68.70;;;30.67;;
37091;SDS011;23005;51.998;4.502;2023-04-29T05:34:52;56.72;;;28.98;;
37091;SDS011;23005;51.998;4.502;2023-04-29T05:36:12;64.00;;;30.73;;
37091;SDS011;23005;51.998;4.502;2023-04-29T05:37:33;57.80;;;30.03;;
37091;SDS011;23005;51.998;4.502;2023-04-29T05:38:57;61.20;;;29.10;;
37091;SDS011;23005;51.998;4.502;2023-04-29T05:40:20;62.17;;;31.10;;
37091;SDS011;23005;51.998;4.502;2023-04-29T05:41:40;61.33;;;31.48;;
37091;SDS011;23005;51.998;4.502;2023-04-29T05:43:01;64.10;;;32.67;;
37091;SDS011;23005;51.998;4.502;2023-04-29T05:44:22;57.88;;;30.33;;
37091;SDS011;23005;51.998;4.502;2023-04-29T05:45:45;55.47;;;29.73;;
37091;SDS011;23005;51.998;4.502;2023-04-29T05:47:05;63.05;;;32.03;;
37091;SDS011;23005;51.998;4.502;2023-04-29T05:48:26;54.40;;;30.02;;
37091;SDS011;23005;51.998;4.502;2023-04-29T05:49:47;59.70;;;30.40;;
37091;SDS011;23005;51.998;4.502;2023-04-29T05:51:09;54.35;;;31.17;;
37091;SDS011;23005;51.998;4.502;2023-04-29T05:52:30;64.03;;;31.60;;
37091;SDS011;23005;51.998;4.502;2023-04-29T05:53:51;55.90;;;29.92;;
37091;SDS011;23005;51.998;4.502;2023-04-29T05:55:11;49.67;;;28.73;;
37091;SDS011;23005;51.998;4.502;2023-04-29T05:56:33;57.17;;;29.77;;
37091;SDS011;23005;51.998;4.502;2023-04-29T05:57:54;50.80;;;28.00;;
37091;SDS011;23005;51.998;4.502;2023-04-29T05:59:15;54.42;;;29.65;;
37091;SDS011;23005;51.998;4.502;2023-04-29T06:00:37;50.80;;;27.35;;
37091;SDS011;23005;51.998;4.502;2023-04-29T06:01:58;47.10;;;26.88;;
37091;SDS011;23005;51.998;4.502;2023-04-29T06:03:19;51.35;;;28.30;;
37091;SDS011;23005;51.998;4.502;2023-04-29T06:04:41;50.55;;;28.08;;
37091;SDS011;23005;51.998;4.502;2023-04-29T06:06:02;41.63;;;26.20;;
37091;SDS011;23005;51.998;4.502;2023-04-29T06:07:23;45.35;;;26.83;;
37091;SDS011;23005;51.998;4.502;2023-04-29T06:08:43;50.38;;;25.55;;
37091;SDS011;23005;51.998;4.502;2023-04-29T06:10:05;49.33;;;26.67;;
37091;SDS011;23005;51.998;4.502;2023-04-29T06:11:26;41.10;;;24.58;;
37091;SDS011;23005;51.998;4.502;2023-04-29T06:12:48;49.95;;;26.17;;
37091;SDS011;23005;51.998;4.502;2023-04-29T06:14:09;53.92;;;25.25;;
37091;SDS011;23005;51.998;4.502;2023-04-29T06:15:30;47.80;;;25.90;;
37091;SDS011;23005;51.998;4.502;2023-04-29T06:16:50;44.05;;;23.63;;
37091;SDS011;23005;51.998;4.502;2023-04-29T06:18:11;45.17;;;24.60;;
37091;SDS011;23005;51.998;4.502;2023-04-29T06:19:32;51.25;;;24.77;;
37091;SDS011;23005;51.998;4.502;2023-04-29T06:20:52;34.88;;;22.58;;
37091;SDS011;23005;51.998;4.502;2023-04-29T06:22:13;45.07;;;25.57;;
37091;SDS011;23005;51.998;4.502;2023-04-29T06:23:34;37.60;;;22.75;;
37091;SDS011;23005;51.998;4.502;2023-04-29T06:24:54;43.22;;;22.83;;
37091;SDS011;23005;51.998;4.502;2023-04-29T06:26:15;39.97;;;22.60;;
37091;SDS011;23005;51.998;4.502;2023-04-29T06:27:37;36.45;;;21.55;;
37091;SDS011;23005;51.998;4.502;2023-04-29T06:28:59;42.28;;;20.88;;
37091;SDS011;23005;51.998;4.502;2023-04-29T06:30:20;43.83;;;21.42;;
37091;SDS011;23005;51.998;4.502;2023-04-29T06:31:41;36.75;;;20.27;;
37091;SDS011;23005;51.998;4.502;2023-04-29T06:33:02;41.42;;;20.38;;
37091;SDS011;23005;51.998;4.502;2023-04-29T06:34:23;30.73;;;19.10;;
37091;SDS011;23005;51.998;4.502;2023-04-29T06:35:43;37.43;;;20.83;;
37091;SDS011;23005;51.998;4.502;2023-04-29T06:37:07;33.90;;;20.10;;
37091;SDS011;23005;51.998;4.502;2023-04-29T06:38:28;42.03;;;21.05;;
37091;SDS011;23005;51.998;4.502;2023-04-29T06:39:49;32.00;;;18.75;;
37091;SDS011;23005;51.998;4.502;2023-04-29T06:41:10;30.02;;;19.23;;
37091;SDS011;23005;51.998;4.502;2023-04-29T06:42:32;31.05;;;18.42;;
37091;SDS011;23005;51.998;4.502;2023-04-29T06:43:52;33.55;;;19.08;;
37091;SDS011;23005;51.998;4.502;2023-04-29T06:45:15;26.63;;;17.45;;
37091;SDS011;23005;51.998;4.502;2023-04-29T06:46:35;33.22;;;18.02;;
37091;SDS011;23005;51.998;4.502;2023-04-29T06:47:56;32.15;;;18.02;;
37091;SDS011;23005;51.998;4.502;2023-04-29T06:49:17;25.95;;;17.05;;
37091;SDS011;23005;51.998;4.502;2023-04-29T06:50:37;27.35;;;17.08;;
37091;SDS011;23005;51.998;4.502;2023-04-29T06:51:58;31.73;;;17.58;;
37091;SDS011;23005;51.998;4.502;2023-04-29T06:53:19;26.83;;;17.20;;
37091;SDS011;23005;51.998;4.502;2023-04-29T06:54:40;30.45;;;17.73;;
37091;SDS011;23005;51.998;4.502;2023-04-29T06:56:01;29.60;;;16.88;;
37091;SDS011;23005;51.998;4.502;2023-04-29T06:57:22;29.30;;;16.98;;
37091;SDS011;23005;51.998;4.502;2023-04-29T06:58:42;35.72;;;18.05;;
37091;SDS011;23005;51.998;4.502;2023-04-29T07:00:03;29.05;;;17.80;;
37091;SDS011;23005;51.998;4.502;2023-04-29T07:01:26;31.63;;;17.23;;
37091;SDS011;23005;51.998;4.502;2023-04-29T07:02:47;30.00;;;18.40;;
37091;SDS011;23005;51.998;4.502;2023-04-29T07:04:07;30.73;;;18.10;;
37091;SDS011;23005;51.998;4.502;2023-04-29T07:05:28;32.38;;;18.50;;
37091;SDS011;23005;51.998;4.502;2023-04-29T07:06:49;28.33;;;17.75;;
37091;SDS011;23005;51.998;4.502;2023-04-29T07:08:10;32.83;;;17.73;;
37091;SDS011;23005;51.998;4.502;2023-04-29T07:09:31;31.13;;;18.52;;
37091;SDS011;23005;51.998;4.502;2023-04-29T07:10:54;30.88;;;17.48;;
37091;SDS011;23005;51.998;4.502;2023-04-29T07:12:15;30.10;;;18.50;;
37091;SDS011;23005;51.998;4.502;2023-04-29T07:13:36;31.85;;;18.13;;
37091;SDS011;23005;51.998;4.502;2023-04-29T07:14:57;36.10;;;17.27;;
37091;SDS011;23005;51.998;4.502;2023-04-29T07:16:18;32.92;;;17.02;;
37091;SDS011;23005;51.998;4.502;2023-04-29T07:17:40;30.08;;;16.05;;
37091;SDS011;23005;51.998;4.502;2023-04-29T07:19:00;29.60;;;16.58;;
37091;SDS011;23005;51.998;4.502;2023-04-29T07:20:21;41.85;;;17.42;;
37091;SDS011;23005;51.998;4.502;2023-04-29T07:21:42;29.58;;;15.02;;
37091;SDS011;23005;51.998;4.502;2023-04-29T07:23:03;35.78;;;16.00;;
37091;SDS011;23005;51.998;4.502;2023-04-29T07:24:24;34.80;;;16.73;;
37091;SDS011;23005;51.998;4.502;2023-04-29T07:25:45;32.10;;;15.98;;
37091;SDS011;23005;51.998;4.502;2023-04-29T07:27:06;31.60;;;16.23;;
37091;SDS011;23005;51.998;4.502;2023-04-29T07:28:26;29.23;;;15.70;;
37091;SDS011;23005;51.998;4.502;2023-04-29T07:29:47;25.23;;;14.85;;
37091;SDS011;23005;51.998;4.502;2023-04-29T07:31:08;25.95;;;14.65;;
37091;SDS011;23005;51.998;4.502;2023-04-29T07:32:28;28.88;;;14.65;;
37091;SDS011;23005;51.998;4.502;2023-04-29T07:33:51;28.52;;;13.68;;
37091;SDS011;23005;51.998;4.502;2023-04-29T07:35:11;23.60;;;12.77;;
37091;SDS011;23005;51.998;4.502;2023-04-29T07:36:32;29.00;;;13.93;;
37091;SDS011;23005;51.998;4.502;2023-04-29T07:37:53;30.17;;;14.27;;
37091;SDS011;23005;51.998;4.502;2023-04-29T07:39:14;25.63;;;13.23;;
37091;SDS011;23005;51.998;4.502;2023-04-29T07:40:35;25.17;;;12.53;;
37091;SDS011;23005;51.998;4.502;2023-04-29T07:41:56;28.30;;;14.00;;
37091;SDS011;23005;51.998;4.502;2023-04-29T07:43:16;23.60;;;13.97;;
37091;SDS011;23005;51.998;4.502;2023-04-29T07:44:37;23.97;;;12.50;;
37091;SDS011;23005;51.998;4.502;2023-04-29T07:45:58;25.83;;;13.03;;
37091;SDS011;23005;51.998;4.502;2023-04-29T07:47:19;23.70;;;12.50;;
37091;SDS011;23005;51.998;4.502;2023-04-29T07:48:40;22.55;;;12.45;;
37091;SDS011;23005;51.998;4.502;2023-04-29T07:50:02;25.52;;;12.50;;
37091;SDS011;23005;51.998;4.502;2023-04-29T07:51:23;19.55;;;12.13;;
37091;SDS011;23005;51.998;4.502;2023-04-29T07:52:43;21.90;;;12.20;;
37091;SDS011;23005;51.998;4.502;2023-04-29T07:54:04;26.50;;;12.43;;
37091;SDS011;23005;51.998;4.502;2023-04-29T07:55:25;24.35;;;13.50;;
37091;SDS011;23005;51.998;4.502;2023-04-29T07:56:48;25.40;;;13.55;;
37091;SDS011;23005;51.998;4.502;2023-04-29T07:58:09;24.63;;;13.32;;
37091;SDS011;23005;51.998;4.502;2023-04-29T07:59:30;28.10;;;11.77;;